Latest Weather Observations for Gelantipy

IDV60801

Issued at 4:05 pm EDT Sunday 26 October 2014 (issued every 30 minutes, with the page automatically refreshed every 10 minutes)

About weather observations | Map of weather stations | Latest weather observations for VIC | Other Formats
Station Details ID: 084142 Name: GELANTIPY Lat: -37.22 Lon: 148.26 Height: 755.0 m
Data from the previous 72 hours. | See also: Recent months at Gelantipy
Date/Time
EDT
Temp
°C
App
Temp
°C
Dew
Point
Rel
Hum
%
Delta-T
°C
Wind Press
QNH
hPa
Press
MSL
hPa
Rain
since 9 am
mm
Dir
 
Spd
km/h
Gust
km/h
Spd
kts
Gust
kts
26/04:00pm 12.9 11.3 11.5 91 0.8 SW 11 17 6 9 1012.3 1011.6 0.0
26/03:30pm 12.7 11.4 11.3 91 0.8 S 9 50 5 27 1012.2 1011.5 0.0
26/03:00pm 12.3 11.1 11.5 95 0.4 SW 9 13 5 7 1012.2 1011.5 0.0
26/02:30pm 12.5 10.9 11.4 93 0.6 SSW 11 20 6 11 1012.8 1012.0 0.0
26/02:00pm 12.5 10.4 11.2 92 0.7 S 13 20 7 11 1012.8 1012.0 0.0
26/01:30pm 12.4 10.4 11.5 94 0.5 S 13 17 7 9 1013.0 1012.2 0.0
26/01:00pm 12.5 10.5 11.4 93 0.6 S 13 17 7 9 1013.0 1012.2 0.0
26/12:30pm 12.8 11.2 11.7 93 0.6 S 11 17 6 9 1012.9 1012.1 0.0
26/12:00pm 12.5 11.4 11.9 96 0.3 S 9 13 5 7 1013.0 1012.2 0.0
26/11:30am 11.9 11.1 11.6 98 0.2 SSE 7 11 4 6 1013.1 1012.3 0.0
26/11:00am 11.3 10.0 11.3 100 0.0 SW 9 13 5 7 1013.4 1012.7 0.0
26/10:30am 11.2 10.3 11.2 100 0.0 SW 7 11 4 6 1013.5 1012.8 0.0
26/10:00am 10.6 9.1 10.6 100 0.0 SW 9 13 5 7 1013.4 1012.7 0.0
26/09:30am 10.8 9.4 10.8 100 0.0 SSW 9 13 5 7 1013.2 1012.4 0.0
26/09:00am 10.6 9.1 10.6 100 0.0 SSW 9 13 5 7 1013.1 1012.3 1.0
26/08:30am 10.4 8.9 10.4 100 0.0 S 9 13 5 7 1013.0 1012.2 1.0
26/08:00am 10.3 8.7 10.3 100 0.0 SW 9 15 5 8 1013.0 1012.2 1.0
26/07:30am 10.5 9.6 10.5 100 0.0 SSW 6 7 3 4 1012.6 1011.9 0.8
26/07:00am 10.3 10.4 10.3 100 0.0 CALM 0 0 0 0 1012.2 1011.5 0.8
26/06:30am 10.2 9.5 10.2 100 0.0 SSW 4 7 2 4 1012.2 1011.5 0.8
26/06:00am 10.2 10.3 10.2 100 0.0 WSW 0 0 0 0 1012.2 1011.5 0.8
26/05:30am 10.2 9.0 10.2 100 0.0 SSW 7 9 4 5 1012.6 1011.9 0.8
26/05:00am 10.3 9.7 10.3 100 0.0 SW 4 7 2 4 1012.3 1011.6 0.8
26/04:30am 10.3 9.3 10.3 100 0.0 S 6 9 3 5 1012.1 1011.3 0.8
26/04:00am 10.3 9.3 10.3 100 0.0 SSW 6 9 3 5 1012.2 1011.5 0.8
26/03:30am 10.4 9.8 10.4 100 0.0 SSE 4 6 2 3 1012.2 1011.5 0.8
26/03:00am 10.3 9.7 10.3 100 0.0 S 4 7 2 4 1012.5 1011.8 0.6
26/02:30am 10.4 9.4 10.4 100 0.0 S 6 9 3 5 1013.1 1012.3 0.6
26/02:00am 10.5 9.9 10.5 100 0.0 SSE 4 6 2 3 1013.4 1012.7 0.6
26/01:30am 10.4 9.8 10.4 100 0.0 SSW 4 6 2 3 1013.8 1013.1 0.6
26/01:00am 10.5 10.3 10.5 100 0.0 SSW 2 7 1 4 1014.6 1013.9 0.6
26/12:30am 10.4 9.8 10.4 100 0.0 SW 4 6 2 3 1014.9 1014.2 0.6
26/12:00am 10.5 10.3 10.5 100 0.0 S 2 6 1 3 1015.6 1014.8 0.6
 
Date/Time
EDT
Temp
°C
App
Temp
°C
Dew
Point
Rel
Hum
%
Delta-T
°C
Wind Press
QNH
hPa
Press
MSL
hPa
Rain
since 9 am
mm
Dir
 
Spd
km/h
Gust
km/h
Spd
kts
Gust
kts
25/11:30pm 10.4 9.2 10.4 100 0.0 S 7 9 4 5 1015.6 1014.8 0.6
25/11:00pm 10.4 9.4 10.4 100 0.0 SSW 6 9 3 5 1015.8 1015.1 0.4
25/10:30pm 10.4 8.9 10.4 100 0.0 S 9 11 5 6 1016.2 1015.5 0.4
25/10:00pm 10.5 9.0 10.5 100 0.0 SSW 9 15 5 8 1016.3 1015.6 0.4
25/09:30pm 10.8 9.4 10.8 100 0.0 SW 9 13 5 7 1016.1 1015.4 0.4
25/09:00pm 11.1 10.3 11.1 100 0.0 SSW 6 13 3 7 1015.9 1015.2 0.4
25/08:30pm 11.3 10.4 11.3 100 0.0 S 7 9 4 5 1015.7 1015.0 0.4
25/08:00pm 11.3 10.0 11.3 100 0.0 S 9 13 5 7 1015.7 1015.0 0.2
25/07:30pm 11.6 10.4 11.6 100 0.0 SSW 9 13 5 7 1015.6 1014.8 0.2
25/07:00pm 12.0 10.9 12.0 100 0.0 SSW 9 15 5 8 1015.4 1014.7 0.2
25/06:30pm 12.4 11.4 12.4 100 0.0 SSW 9 13 5 7 1015.3 1014.6 0.2
25/06:00pm 12.7 11.4 12.5 99 0.1 SSW 11 17 6 9 1015.1 1014.4 0.2
25/05:30pm 13.3 12.6 13.1 99 0.1 SSW 9 13 5 7 1014.8 1014.1 0.2
25/05:00pm 13.6 12.2 13.3 98 0.2 SW 13 20 7 11 1014.8 1014.1 0.2
25/04:30pm 14.4 13.5 13.6 95 0.5 S 11 17 6 9 1014.7 1014.0 0.2
25/04:00pm 16.8 15.9 14.8 88 1.2 SSW 13 20 7 11 1014.7 1014.0 0.0
25/03:30pm 18.1 18.5 16.4 90 1.0 SW 9 17 5 9 1014.7 1014.0 0.0
25/03:00pm 18.9 18.8 16.1 84 1.7 SSW 11 20 6 11 1014.6 1013.9 0.0
25/02:30pm 20.5 20.6 16.5 78 2.5 S 11 17 6 9 1014.9 1014.2 0.0
25/02:00pm 20.6 21.0 17.2 81 2.1 S 11 17 6 9 1015.3 1014.6 0.0
25/01:30pm 20.9 20.7 16.7 77 2.6 SSE 13 19 7 10 1015.3 1014.6 0.0
25/01:00pm 21.2 21.2 16.2 73 3.1 S 11 17 6 9 1015.7 1015.0 0.0
25/12:30pm 21.5 21.6 16.5 73 3.1 SSE 11 15 6 8 1016.0 1015.3 0.0
25/12:00pm 21.0 21.4 16.4 75 2.9 S 9 15 5 8 1016.5 1015.8 0.0
25/11:30am 20.8 22.0 16.8 78 2.5 W 6 11 3 6 1016.8 1016.2 0.0
25/11:00am 19.2 19.0 14.7 75 2.7 NNE 9 13 5 7 1017.3 1016.6 0.0
25/10:30am 18.3 17.9 15.2 82 1.9 NNE 11 17 6 9 1017.3 1016.6 0.0
25/10:00am 16.6 16.1 13.7 83 1.7 NE 9 15 5 8 1017.4 1016.7 0.0
25/09:30am 14.9 14.4 12.2 84 1.5 NNE 6 13 3 7 1017.5 1016.8 0.0
25/09:00am 13.2 12.7 12.1 93 0.6 NW 6 9 3 5 1017.6 1016.9 0.2
25/08:30am 12.8 12.4 12.5 98 0.2 S 6 7 3 4 1017.6 1016.9 0.2
25/08:00am 12.9 13.8 12.9 100 0.0 CALM 0 4 0 2 1017.6 1016.9 0.2
25/07:30am 12.6 12.7 12.6 100 0.0 WSW 4 11 2 6 1017.4 1016.7 0.2
25/07:00am 12.5 12.1 12.5 100 0.0 W 6 7 3 4 1017.1 1016.4 0.2
25/06:30am 12.3 11.7 12.3 100 0.0 W 7 9 4 5 1016.7 1016.1 0.2
25/06:00am 12.2 12.5 12.2 100 0.0 W 2 6 1 3 1016.4 1015.7 0.2
25/05:30am 11.9 11.2 11.9 100 0.0 W 7 9 4 5 1016.1 1015.4 0.0
25/05:00am 11.4 11.0 11.2 99 0.1 S 4 7 2 4 1015.9 1015.2 0.0
25/04:30am 11.8 11.9 11.6 99 0.1 NW 2 7 1 4 1015.6 1014.8 0.0
25/04:00am 11.1 10.2 10.8 98 0.2 SSW 6 9 3 5 1015.7 1015.0 0.0
25/03:30am 11.4 11.7 10.8 96 0.3 CALM 0 0 0 0 1015.2 1014.5 0.0
25/03:00am 12.5 12.7 12.0 97 0.3 WSW 2 6 1 3 1015.4 1014.7 0.0
25/02:30am 12.8 12.3 12.0 95 0.4 W 6 9 3 5 1015.7 1015.0 0.0
25/02:00am 13.2 12.6 12.4 95 0.4 SW 7 13 4 7 1015.7 1015.0 0.0
25/01:30am 13.7 12.7 11.0 84 1.5 NNE 7 9 4 5 1015.4 1014.7 0.0
25/01:00am 14.1 14.5 11.1 82 1.7 CALM 0 0 0 0 1015.7 1015.0 0.0
25/12:30am 15.5 15.9 11.1 75 2.4 CALM 0 0 0 0 1016.0 1015.3 0.0
25/12:00am 15.1 16.0 13.0 87 1.2 CALM 0 0 0 0 1015.9 1015.2 0.0
 
Date/Time
EDT
Temp
°C
App
Temp
°C
Dew
Point
Rel
Hum
%
Delta-T
°C
Wind Press
QNH
hPa
Press
MSL
hPa
Rain
since 9 am
mm
Dir
 
Spd
km/h
Gust
km/h
Spd
kts
Gust
kts
24/11:30pm 15.7 15.6 13.2 85 1.4 NE 6 7 3 4 1015.7 1015.0 0.0
24/11:00pm 15.5 16.2 13.3 87 1.3 NNE 2 7 1 4 1015.7 1015.0 0.0
24/10:30pm 15.8 16.6 13.6 87 1.3 NE 2 6 1 3 1015.6 1014.8 0.0
24/10:00pm 16.2 16.1 13.9 86 1.3 N 7 9 4 5 1015.3 1014.6 0.0
24/09:30pm 15.9 16.4 13.9 88 1.2 N 4 7 2 4 1015.2 1014.5 0.0
24/09:00pm 17.4 17.6 14.3 82 1.8 W 6 7 3 4 1015.0 1014.3 0.0
24/08:30pm 18.1 18.4 14.6 80 2.1 SSW 6 7 3 4 1014.7 1014.0 0.0
24/08:00pm 18.6 18.8 14.1 75 2.7 SW 6 7 3 4 1014.4 1013.6 0.0
24/07:30pm 20.7 21.4 13.4 63 4.3 S 2 6 1 3 1013.7 1013.0 0.0
24/07:00pm 22.0 20.6 12.3 54 5.7 NW 11 15 6 8 1013.5 1012.8 0.0
24/06:30pm 21.8 20.0 13.2 58 5.1 WNW 15 19 8 10 1013.5 1012.8 0.0
24/06:00pm 22.2 21.1 13.0 56 5.5 WNW 11 17 6 9 1013.4 1012.7 0.0
24/05:30pm 22.7 20.7 11.4 49 6.5 WNW 13 20 7 11 1013.4 1012.7 0.0
24/05:00pm 22.9 20.6 11.6 49 6.6 NW 15 24 8 13 1013.4 1012.7 0.0
24/04:30pm 23.2 19.8 10.6 45 7.2 WNW 19 30 10 16 1013.4 1012.7 0.0
24/04:00pm 23.9 20.0 10.9 44 7.5 W 22 35 12 19 1013.2 1012.4 0.0
24/03:30pm 24.9 19.7 10.4 40 8.3 W 28 43 15 23 1013.3 1012.6 0.0
24/03:26pm 25.1 19.6 10.6 40 8.4 W 30 48 16 26 1013.2 1012.4 0.0
24/03:19pm 24.8 18.3 9.1 37 8.8 W 33 48 18 26 1013.2 1012.4 0.0
24/03:00pm 25.1 21.2 9.4 37 8.9 WNW 20 30 11 16 1013.3 1012.6 0.0
24/02:41pm 24.3 19.0 9.8 40 8.2 NW 28 48 15 26 1013.3 1012.6 0.0
24/02:30pm 25.0 19.7 11.2 42 8.0 WNW 30 43 16 23 1013.3 1012.6 0.0
24/02:18pm 25.0 19.1 8.9 36 9.0 WNW 30 54 16 29 1013.3 1012.6 0.0
24/02:00pm 25.5 21.4 10.1 38 8.8 WNW 22 35 12 19 1013.3 1012.6 0.0
24/01:30pm 25.5 21.5 10.5 39 8.7 NNW 22 35 12 19 1013.3 1012.6 0.0
24/01:00pm 23.9 22.3 14.0 54 6.0 NE 15 20 8 11 1013.6 1012.9 0.0
24/12:30pm 22.7 19.9 13.2 55 5.7 NE 20 26 11 14 1013.7 1013.0 0.0
24/12:00pm 22.2 20.2 13.8 59 5.0 NNE 17 24 9 13 1014.0 1013.3 0.0
24/11:30am 21.1 19.1 14.0 64 4.3 NE 17 26 9 14 1014.6 1013.9 0.0
24/11:00am 20.4 18.3 13.6 65 4.0 NE 17 26 9 14 1014.9 1014.2 0.0
24/10:30am 18.8 15.5 12.8 68 3.5 NNE 22 32 12 17 1015.2 1014.5 0.0
24/10:00am 18.2 14.3 12.0 67 3.5 NE 24 32 13 17 1015.7 1015.0 0.0
24/09:30am 17.1 11.9 10.2 64 3.8 NE 28 35 15 19 1015.7 1015.0 0.0
24/09:00am 16.7 11.8 11.2 70 3.1 NNE 28 39 15 21 1015.8 1015.1 0.2
24/08:30am 16.0 11.4 11.2 73 2.7 NNE 26 37 14 20 1016.0 1015.3 0.2
24/08:00am 15.2 10.6 11.0 76 2.3 NNE 26 32 14 17 1016.1 1015.4 0.2
24/07:30am 15.1 10.0 10.7 75 2.4 NNE 28 37 15 20 1015.9 1015.2 0.2
24/07:00am 13.6 8.8 10.2 80 1.8 NNE 26 32 14 17 1015.8 1015.1 0.2
24/06:30am 12.9 8.0 10.1 83 1.5 NNE 26 32 14 17 1015.7 1015.0 0.2
24/06:00am 12.7 7.5 10.1 84 1.4 NNE 28 33 15 18 1015.6 1014.8 0.2
24/05:30am 13.1 8.4 10.5 84 1.4 NNE 26 32 14 17 1015.4 1014.7 0.2
24/05:00am 13.5 8.8 10.5 82 1.6 NNE 26 35 14 19 1015.4 1014.7 0.2
24/04:30am 12.9 9.3 10.4 85 1.3 NNE 20 28 11 15 1015.9 1015.2 0.2
24/04:00am 12.8 9.7 10.2 84 1.4 NNE 17 22 9 12 1016.1 1015.4 0.2
24/03:30am 12.9 9.2 10.3 84 1.4 NNE 20 26 11 14 1016.2 1015.5 0.2
24/03:00am 12.8 9.7 10.3 85 1.3 N 17 20 9 11 1016.8 1016.2 0.2
24/02:30am 12.2 9.9 10.3 88 1.0 NNE 13 15 7 8 1017.3 1016.6 0.2
24/02:00am 13.1 10.5 10.8 86 1.3 NNE 15 17 8 9 1017.8 1017.1 0.2
24/01:30am 13.3 11.3 11.5 89 1.0 NNE 13 17 7 9 1018.3 1017.7 0.2
24/01:00am 13.5 10.8 11.6 88 1.1 N 17 20 9 11 1018.7 1018.0 0.0
24/12:30am 13.6 10.9 11.7 88 1.1 N 17 20 9 11 1019.0 1018.3 0.0
24/12:00am 13.2 11.5 12.4 95 0.4 NNE 13 17 7 9 1019.3 1018.7 0.0
 
Date/Time
EDT
Temp
°C
App
Temp
°C
Dew
Point
Rel
Hum
%
Delta-T
°C
Wind Press
QNH
hPa
Press
MSL
hPa
Rain
since 9 am
mm
Dir
 
Spd
km/h
Gust
km/h
Spd
kts
Gust
kts
23/11:30pm 13.1 11.8 12.6 97 0.3 N 11 15 6 8 1019.5 1018.9 0.0
23/11:00pm 12.7 11.4 12.4 98 0.2 N 11 15 6 8 1019.9 1019.2 0.0
23/10:30pm 12.6 13.4 12.4 99 0.1 CALM 0 0 0 0 1019.9 1019.2 0.0
23/10:00pm 12.9 12.1 12.9 100 0.0 N 9 13 5 7 1020.1 1019.4 0.0
23/09:30pm 13.2 13.1 13.2 100 0.0 NNE 6 9 3 5 1020.1 1019.4 0.0
23/09:00pm 13.5 13.3 13.5 100 0.0 ENE 7 13 4 7 1020.2 1019.6 0.0
23/08:30pm 13.4 13.1 13.4 100 0.0 SW 7 9 4 5 1020.4 1019.8 0.0
23/08:00pm 13.3 13.9 13.1 99 0.1 ENE 2 7 1 4 1020.5 1019.9 0.0
23/07:30pm 13.3 13.1 13.1 99 0.1 SSE 6 7 3 4 1020.7 1020.1 0.0
23/07:00pm 13.4 13.3 13.2 99 0.1 SSE 6 7 3 4 1020.4 1019.8 0.0
23/06:30pm 13.4 12.7 13.1 98 0.2 SSE 9 17 5 9 1019.7 1019.1 0.0
23/06:00pm 13.7 12.7 13.4 98 0.2 SSW 11 15 6 8 1019.6 1019.0 0.0
23/05:30pm 13.9 13.2 13.3 96 0.3 S 9 15 5 8 1019.6 1019.0 0.0
23/05:00pm 14.3 13.3 13.5 95 0.5 SSW 11 19 6 10 1019.6 1019.0 0.0
23/04:30pm 14.8 13.9 13.7 93 0.6 SSW 11 19 6 10 1019.3 1018.7 0.0

Other Formats:

Comma delimited format used in spreadsheet applications
http://www.bom.gov.au/fwo/IDV60801/IDV60801.94913.axf

JavaScript Object Notation format (JSON) in row-major order
http://www.bom.gov.au/fwo/IDV60801/IDV60801.94913.json